createdAt,value
2022-10-18T00:00:17.200Z,101659.00
2022-10-18T00:02:20.849Z,101656.19
2022-10-18T00:04:24.062Z,101664.31
2022-10-18T00:06:27.076Z,101665.38
2022-10-18T00:08:30.268Z,101662.78
2022-10-18T00:10:34.496Z,101669.13
2022-10-18T00:12:38.154Z,101659.00
2022-10-18T00:14:41.137Z,101656.41
2022-10-18T00:16:44.082Z,101654.94
2022-10-18T00:18:47.985Z,101663.09
2022-10-18T00:21:01.601Z,101664.84
2022-10-18T00:23:04.465Z,101664.84
2022-10-18T00:25:10.720Z,101664.56
2022-10-18T00:27:14.982Z,101668.84
2022-10-18T00:29:18.111Z,101667.00
2022-10-18T00:31:24.154Z,101664.34
2022-10-18T00:33:27.129Z,101665.25
2022-10-18T00:35:29.996Z,101668.06
2022-10-18T00:37:32.940Z,101669.00
2022-10-18T00:39:35.838Z,101657.47
2022-10-18T00:41:38.351Z,101656.44
2022-10-18T00:43:58.045Z,101664.34
2022-10-18T00:46:01.023Z,101653.84
2022-10-18T00:48:05.865Z,101656.41
2022-10-18T00:50:09.585Z,101647.63
2022-10-18T00:52:13.998Z,101648.44
2022-10-18T00:54:18.282Z,101650.22
2022-10-18T00:56:21.192Z,101646.75
2022-10-18T00:58:24.096Z,101651.25
2022-10-18T01:00:28.394Z,101650.34
2022-10-18T01:02:31.573Z,101653.91
2022-10-18T01:04:35.301Z,101648.59
2022-10-18T01:06:42.592Z,101653.91
2022-10-18T01:08:52.234Z,101645.13
2022-10-18T01:11:04.184Z,101637.41
2022-10-18T01:13:16.330Z,101633.88
2022-10-18T01:15:27.363Z,101632.16
2022-10-18T01:17:38.121Z,101633.03
2022-10-18T01:20:24.862Z,101633.88
2022-10-18T01:22:30.133Z,101631.28
2022-10-18T01:24:47.412Z,101629.56
2022-10-18T01:27:20.161Z,101639.31
2022-10-18T01:29:30.666Z,101644.69
2022-10-18T01:31:36.403Z,101638.56
2022-10-18T01:33:42.324Z,101647.56
2022-10-18T01:35:49.934Z,101643.09
2022-10-18T01:37:53.404Z,101643.28
2022-10-18T01:39:58.353Z,101642.34
2022-10-18T01:42:02.907Z,101644.03
2022-10-18T01:44:08.602Z,101637.97
2022-10-18T01:46:12.892Z,101638.72
2022-10-18T01:48:17.723Z,101643.97
2022-10-18T01:50:29.616Z,101628.72
2022-10-18T01:52:34.141Z,101626.25
2022-10-18T01:54:39.000Z,101631.78
2022-10-18T01:56:46.468Z,101633.53
2022-10-18T01:58:58.550Z,101628.25
2022-10-18T02:03:18.872Z,101624.78
2022-10-18T02:05:27.628Z,101627.44
2022-10-18T02:07:35.330Z,101625.84
2022-10-18T02:09:42.544Z,101629.31
2022-10-18T02:11:46.673Z,101623.09
2022-10-18T02:13:52.893Z,101626.84
2022-10-18T02:15:59.068Z,101630.19
2022-10-18T02:18:03.158Z,101629.16
2022-10-18T02:20:10.516Z,101621.13
2022-10-18T02:22:14.103Z,101615.78
2022-10-18T02:24:17.322Z,101617.53
2022-10-18T02:26:20.195Z,101619.25
2022-10-18T02:30:31.825Z,101616.59
2022-10-18T02:32:36.400Z,101613.13
2022-10-18T02:34:41.922Z,101615.84
2022-10-18T02:36:48.168Z,101615.78
2022-10-18T02:38:58.183Z,101613.94
2022-10-18T02:41:01.763Z,101615.66
2022-10-18T02:43:07.005Z,101615.53
2022-10-18T02:45:12.274Z,101618.38
2022-10-18T02:47:15.477Z,101623.63
2022-10-18T02:49:18.652Z,101620.72
2022-10-18T02:51:21.775Z,101617.13
2022-10-18T02:53:26.003Z,101626.75
2022-10-18T02:57:37.198Z,101624.91
2022-10-18T02:59:40.147Z,101624.84
2022-10-18T03:01:43.344Z,101623.03
2022-10-18T03:03:46.313Z,101623.16
2022-10-18T03:05:50.293Z,101622.38
2022-10-18T03:07:57.883Z,101619.72
2022-10-18T03:10:02.139Z,101622.44
2022-10-18T03:12:05.529Z,101616.28
2022-10-18T03:14:08.662Z,101621.69
2022-10-18T03:16:12.595Z,101621.72
2022-10-18T03:18:15.539Z,101620.72
2022-10-18T03:20:19.745Z,101619.00
2022-10-18T03:22:22.798Z,101622.72
2022-10-18T03:24:25.701Z,101626.13
2022-10-18T03:26:29.915Z,101619.13
2022-10-18T03:28:33.028Z,101615.78
2022-10-18T03:30:35.947Z,101616.66
2022-10-18T03:32:38.967Z,101617.59
2022-10-18T03:34:42.050Z,101620.28
2022-10-18T03:36:44.933Z,101624.72
2022-10-18T03:38:47.868Z,101632.88
2022-10-18T03:40:52.455Z,101624.78
2022-10-18T03:42:56.704Z,101628.28
2022-10-18T03:44:59.595Z,101614.97
2022-10-18T03:47:02.453Z,101621.78
2022-10-18T03:49:05.467Z,101618.28
2022-10-18T03:51:08.365Z,101625.25
2022-10-18T03:53:11.606Z,101615.53
2022-10-18T03:55:14.912Z,101618.22
2022-10-18T03:57:18.021Z,101614.97
2022-10-18T03:59:22.650Z,101619.47
2022-10-18T04:01:25.673Z,101626.31
2022-10-18T04:03:28.767Z,101623.53
2022-10-18T04:05:31.830Z,101627.91
2022-10-18T04:09:44.529Z,101625.59
2022-10-18T04:11:47.441Z,101630.56
2022-10-18T04:13:50.408Z,101626.06
2022-10-18T04:15:55.097Z,101630.66
2022-10-18T04:18:00.252Z,101627.19
2022-10-18T04:20:03.145Z,101621.84
2022-10-18T04:22:06.019Z,101625.19
2022-10-18T04:24:08.961Z,101628.06
2022-10-18T04:26:11.838Z,101621.69
2022-10-18T04:28:18.588Z,101620.72
2022-10-18T04:30:21.434Z,101617.25
2022-10-18T04:32:28.619Z,101624.22
2022-10-18T04:34:31.703Z,101617.13
2022-10-18T04:36:34.564Z,101620.63
2022-10-18T04:38:37.634Z,101620.66
2022-10-18T04:40:40.472Z,101626.91
2022-10-18T04:42:44.154Z,101625.06
2022-10-18T04:44:47.285Z,101627.56
2022-10-18T04:46:50.591Z,101631.28
2022-10-18T04:48:55.031Z,101637.47
2022-10-18T04:50:57.988Z,101633.06
2022-10-18T04:53:00.891Z,101628.47
2022-10-18T04:55:03.752Z,101631.13
2022-10-18T04:57:06.612Z,101633.03
2022-10-18T04:59:09.525Z,101629.50
2022-10-18T05:01:12.925Z,101627.00
2022-10-18T05:03:18.408Z,101629.41
2022-10-18T05:05:23.209Z,101640.06
2022-10-18T05:07:27.722Z,101631.38
2022-10-18T05:09:30.557Z,101633.25
2022-10-18T05:11:33.385Z,101630.84
2022-10-18T05:13:36.330Z,101635.00
2022-10-18T05:15:39.459Z,101636.59
2022-10-18T05:17:42.456Z,101634.06
2022-10-18T05:19:46.380Z,101632.91
2022-10-18T05:21:51.208Z,101628.44
2022-10-18T05:23:57.085Z,101625.81
2022-10-18T05:26:03.205Z,101632.91
2022-10-18T05:28:11.139Z,101631.88
2022-10-18T05:30:24.148Z,101628.38
2022-10-18T05:32:27.044Z,101627.28
2022-10-18T05:34:31.957Z,101631.81
2022-10-18T05:36:35.112Z,101634.34
2022-10-18T05:38:43.053Z,101634.22
2022-10-18T05:40:46.313Z,101625.28
2022-10-18T05:42:50.164Z,101632.44
2022-10-18T05:44:53.044Z,101631.41
2022-10-18T05:46:55.966Z,101633.19
2022-10-18T05:48:58.854Z,101621.03
2022-10-18T05:51:02.095Z,101622.75
2022-10-18T05:53:12.568Z,101627.00
2022-10-18T05:55:28.865Z,101622.38
2022-10-18T05:57:32.804Z,101624.53
2022-10-18T05:59:35.981Z,101630.91
2022-10-18T06:01:39.116Z,101626.53
2022-10-18T06:03:41.998Z,101626.69
2022-10-18T06:05:44.993Z,101637.28
2022-10-18T06:07:47.966Z,101640.59
2022-10-18T06:09:50.877Z,101640.66
2022-10-18T06:11:57.478Z,101647.38
2022-10-18T06:14:01.857Z,101648.59
2022-10-18T06:16:05.289Z,101659.09
2022-10-18T06:18:08.158Z,101666.06
2022-10-18T06:20:11.398Z,101663.97
2022-10-18T06:22:14.687Z,101665.53
2022-10-18T06:24:18.384Z,101661.38
2022-10-18T06:26:21.914Z,101659.47
2022-10-18T06:28:26.327Z,101654.81
2022-10-18T06:30:29.286Z,101657.53
2022-10-18T06:32:32.175Z,101653.00
2022-10-18T06:34:35.468Z,101663.59
2022-10-18T06:36:38.341Z,101657.38
2022-10-18T06:38:42.466Z,101663.38
2022-10-18T06:40:45.747Z,101673.50
2022-10-18T06:42:59.932Z,101676.84
2022-10-18T06:45:05.634Z,101683.78
2022-10-18T06:47:09.197Z,101681.22
2022-10-18T06:49:14.138Z,101678.56
2022-10-18T06:51:20.060Z,101680.78
2022-10-18T06:53:23.080Z,101683.22
2022-10-18T06:55:25.946Z,101692.69
2022-10-18T06:57:28.871Z,101685.75
2022-10-18T06:59:31.787Z,101687.38
2022-10-18T07:01:36.140Z,101688.09
2022-10-18T07:03:39.461Z,101690.69
2022-10-18T07:05:42.381Z,101696.16
2022-10-18T07:07:45.313Z,101696.75
2022-10-18T07:09:48.422Z,101698.28
2022-10-18T07:11:52.877Z,101707.34
2022-10-18T07:14:03.015Z,101709.19
2022-10-18T07:16:07.687Z,101710.81
2022-10-18T07:18:12.264Z,101710.75
2022-10-18T07:20:15.363Z,101714.97
2022-10-18T07:22:18.466Z,101718.47
2022-10-18T07:24:21.432Z,101711.56
2022-10-18T07:26:27.214Z,101719.09
2022-10-18T07:28:31.032Z,101727.75
2022-10-18T07:30:34.009Z,101724.28
2022-10-18T07:32:37.051Z,101721.28
2022-10-18T07:34:41.406Z,101723.91
2022-10-18T07:36:44.423Z,101720.59
2022-10-18T07:38:47.714Z,101729.22
2022-10-18T07:40:57.703Z,101733.47
2022-10-18T07:43:04.507Z,101730.16
2022-10-18T07:45:08.716Z,101729.28
2022-10-18T07:47:11.676Z,101726.28
2022-10-18T07:49:14.890Z,101722.75
2022-10-18T07:51:20.327Z,101733.97
2022-10-18T07:53:23.354Z,101730.56
2022-10-18T07:55:26.195Z,101731.56
2022-10-18T07:57:29.399Z,101737.94
2022-10-18T07:59:32.426Z,101736.00
2022-10-18T08:01:35.934Z,101741.63
2022-10-18T08:03:39.569Z,101739.63
2022-10-18T08:05:42.665Z,101742.94
2022-10-18T08:07:47.324Z,101741.63
2022-10-18T08:09:50.195Z,101751.38
2022-10-18T08:11:55.861Z,101747.47
2022-10-18T08:13:58.878Z,101757.47
2022-10-18T08:16:02.477Z,101762.41
2022-10-18T08:18:08.386Z,101763.06
2022-10-18T08:20:29.771Z,101768.16
2022-10-18T08:22:33.703Z,101779.06
2022-10-18T08:24:37.914Z,101776.94
2022-10-18T08:26:40.889Z,101776.94
2022-10-18T08:28:53.493Z,101774.81
2022-10-18T08:31:04.264Z,101780.00
2022-10-18T08:33:07.255Z,101781.72
2022-10-18T08:35:10.700Z,101785.13
2022-10-18T08:37:13.749Z,101788.41
2022-10-18T08:39:17.035Z,101785.63
2022-10-18T08:41:32.394Z,101784.69
2022-10-18T08:43:39.131Z,101787.22
2022-10-18T08:45:44.190Z,101788.09
2022-10-18T08:47:51.963Z,101790.81
2022-10-18T08:49:57.744Z,101789.88
2022-10-18T08:52:00.659Z,101794.47
2022-10-18T08:54:09.166Z,101795.22
2022-10-18T08:56:14.913Z,101799.56
2022-10-18T08:58:22.579Z,101798.81
2022-10-18T09:00:27.291Z,101804.81
2022-10-18T09:02:42.720Z,101790.47
2022-10-18T09:04:51.204Z,101794.06
2022-10-18T09:07:07.798Z,101794.88
2022-10-18T09:09:21.912Z,101796.66
2022-10-18T09:11:36.565Z,101798.59
2022-10-18T09:14:07.575Z,101802.16
2022-10-18T09:16:12.698Z,101805.03
2022-10-18T09:18:26.307Z,101806.75
2022-10-18T09:20:35.083Z,101799.81
2022-10-18T09:22:47.630Z,101804.97
2022-10-18T09:24:56.745Z,101814.47
2022-10-18T09:27:03.251Z,101818.56
2022-10-18T09:29:16.678Z,101813.03
2022-10-18T09:31:23.225Z,101820.03
2022-10-18T09:33:47.689Z,101813.63
2022-10-18T09:35:53.634Z,101807.41
2022-10-18T09:38:02.175Z,101808.38
2022-10-18T09:40:16.555Z,101815.81
2022-10-18T09:42:26.823Z,101815.22
2022-10-18T09:44:34.847Z,101819.19
2022-10-18T09:46:40.488Z,101814.66
2022-10-18T09:48:47.793Z,101808.09
2022-10-18T09:50:54.004Z,101801.47
2022-10-18T09:53:06.368Z,101813.53
2022-10-18T09:55:15.717Z,101819.66
2022-10-18T09:57:23.415Z,101819.03
2022-10-18T09:59:35.584Z,101814.47
2022-10-18T10:01:38.800Z,101818.22
2022-10-18T10:03:43.039Z,101820.63
2022-10-18T10:05:46.124Z,101819.53
2022-10-18T10:07:49.824Z,101809.41
2022-10-18T10:09:57.853Z,101809.41
2022-10-18T10:12:00.841Z,101804.88
2022-10-18T10:14:10.093Z,101805.66
2022-10-18T10:16:16.844Z,101800.59
2022-10-18T10:18:22.526Z,101807.53
2022-10-18T10:20:36.642Z,101810.50
2022-10-18T10:22:41.067Z,101816.19
2022-10-18T10:24:48.811Z,101817.94
2022-10-18T10:26:51.853Z,101816.03
2022-10-18T10:28:55.511Z,101812.00
2022-10-18T10:31:21.130Z,101812.47
2022-10-18T10:33:36.080Z,101818.72
2022-10-18T10:35:53.002Z,101822.56
2022-10-18T10:37:56.731Z,101824.13
2022-10-18T10:40:19.212Z,101816.78
2022-10-18T10:42:24.316Z,101810.28
2022-10-18T10:44:30.201Z,101819.97
2022-10-18T10:46:38.085Z,101819.81
2022-10-18T10:48:47.408Z,101814.56
2022-10-18T10:51:01.636Z,101816.66
2022-10-18T10:53:04.521Z,101805.66
2022-10-18T10:55:33.982Z,101814.91
2022-10-18T10:57:38.405Z,101816.66
2022-10-18T10:59:44.625Z,101812.88
2022-10-18T11:01:51.481Z,101825.31
2022-10-18T11:03:56.348Z,101815.38
2022-10-18T11:06:01.020Z,101807.28
2022-10-18T11:08:05.486Z,101807.84
2022-10-18T11:10:14.588Z,101810.59
2022-10-18T11:12:25.763Z,101806.97
2022-10-18T11:14:31.372Z,101803.50
2022-10-18T11:16:37.204Z,101810.88
2022-10-18T11:18:43.924Z,101803.50
2022-10-18T11:20:50.589Z,101811.41
2022-10-18T11:23:00.528Z,101806.59
2022-10-18T11:25:05.102Z,101797.88
2022-10-18T11:27:12.156Z,101797.16
2022-10-18T11:29:34.374Z,101788.50
2022-10-18T11:31:41.014Z,101801.78
2022-10-18T11:34:14.294Z,101799.34
2022-10-18T11:36:21.811Z,101794.97
2022-10-18T11:38:32.132Z,101787.63
2022-10-18T11:40:56.570Z,101798.03
2022-10-18T11:43:07.323Z,101794.63
2022-10-18T11:45:23.074Z,101793.03
2022-10-18T11:47:30.918Z,101790.25
2022-10-18T11:49:58.058Z,101768.38
2022-10-18T11:52:09.166Z,101758.88
2022-10-18T11:54:25.541Z,101748.06
2022-10-18T11:56:33.814Z,101754.97
2022-10-18T11:58:48.955Z,101733.97
2022-10-18T12:00:54.696Z,101730.16
2022-10-18T12:03:21.531Z,101722.19
2022-10-18T12:05:26.196Z,101720.47
2022-10-18T12:07:32.510Z,101719.03
2022-10-18T12:09:38.315Z,101707.13
2022-10-18T12:11:47.153Z,101695.06
2022-10-18T12:13:53.653Z,101678.78
2022-10-18T12:15:56.804Z,101678.00
2022-10-18T12:18:01.921Z,101679.72
2022-10-18T12:20:11.428Z,101683.94
2022-10-18T12:22:21.776Z,101685.63
2022-10-18T12:24:27.312Z,101672.97
2022-10-18T12:26:33.959Z,101676.09
2022-10-18T12:28:46.142Z,101672.53
2022-10-18T12:30:55.479Z,101675.22
2022-10-18T12:33:26.505Z,101659.00
2022-10-18T12:35:32.603Z,101644.88
2022-10-18T12:37:58.940Z,101657.59
2022-10-18T12:40:10.624Z,101659.31
2022-10-18T12:42:20.376Z,101657.25
2022-10-18T12:44:27.844Z,101654.13
2022-10-18T12:46:45.003Z,101648.97
2022-10-18T12:48:52.185Z,101654.88
2022-10-18T12:50:59.803Z,101657.31
2022-10-18T12:53:18.530Z,101668.81
2022-10-18T12:55:39.958Z,101652.00
2022-10-18T12:58:02.659Z,101662.38
2022-10-18T13:00:06.623Z,101665.94
2022-10-18T13:02:16.641Z,101656.84
2022-10-18T13:04:35.298Z,101646.59
2022-10-18T13:07:20.543Z,101637.00
2022-10-18T13:09:26.322Z,101643.56
2022-10-18T13:11:33.427Z,101643.59
2022-10-18T13:13:51.103Z,101645.28
2022-10-18T13:15:58.756Z,101629.91
2022-10-18T13:18:06.220Z,101638.03
2022-10-18T13:20:26.135Z,101630.19
2022-10-18T13:22:42.732Z,101634.81
2022-10-18T13:24:54.377Z,101633.38
2022-10-18T13:27:31.386Z,101633.69
2022-10-18T13:29:57.590Z,101633.50
2022-10-18T13:32:04.782Z,101629.47
2022-10-18T13:34:29.062Z,101629.94
2022-10-18T13:36:34.110Z,101635.84
2022-10-18T13:38:50.759Z,101631.41
2022-10-18T13:41:03.410Z,101633.44
2022-10-18T13:43:47.824Z,101632.91
2022-10-18T13:45:56.275Z,101631.22
2022-10-18T13:47:59.279Z,101624.38
2022-10-18T13:50:33.112Z,101629.63
2022-10-18T13:53:09.181Z,101630.16
2022-10-18T13:55:39.980Z,101628.75
2022-10-18T13:57:53.117Z,101627.16
2022-10-18T14:00:22.034Z,101625.06
2022-10-18T14:03:00.194Z,101627.78
2022-10-18T14:05:24.777Z,101637.53
2022-10-18T14:07:28.999Z,101640.47
2022-10-18T14:09:55.021Z,101638.25
2022-10-18T14:12:04.717Z,101641.53
2022-10-18T14:14:16.790Z,101645.50
2022-10-18T14:16:29.501Z,101648.13
2022-10-18T14:18:34.456Z,101635.59
2022-10-18T14:20:49.389Z,101636.81
2022-10-18T14:23:03.438Z,101633.88
2022-10-18T14:25:21.669Z,101643.78
2022-10-18T14:27:34.029Z,101643.16
2022-10-18T14:29:38.654Z,101639.50
2022-10-18T14:31:52.863Z,101648.56
2022-10-18T14:33:58.865Z,101643.91
2022-10-18T14:36:11.544Z,101643.25
2022-10-18T14:38:17.609Z,101643.56
2022-10-18T14:40:29.040Z,101646.41
2022-10-18T14:42:32.114Z,101641.44
2022-10-18T14:44:35.278Z,101651.13
2022-10-18T14:46:44.643Z,101641.97
2022-10-18T14:48:55.616Z,101638.53
2022-10-18T14:51:00.474Z,101649.72
2022-10-18T14:53:07.360Z,101659.16
2022-10-18T14:55:18.618Z,101645.88
2022-10-18T14:57:24.945Z,101649.16
2022-10-18T14:59:29.031Z,101654.00
2022-10-18T15:01:33.740Z,101654.31
2022-10-18T15:03:38.187Z,101659.31
2022-10-18T15:05:53.014Z,101658.53
2022-10-18T15:07:58.046Z,101665.38
2022-10-18T15:10:02.902Z,101666.44
2022-10-18T15:12:07.587Z,101670.47
2022-10-18T15:14:14.596Z,101678.69
2022-10-18T15:16:21.473Z,101674.84
2022-10-18T15:18:25.814Z,101667.81
2022-10-18T15:20:32.262Z,101666.75
2022-10-18T15:22:35.481Z,101664.56
2022-10-18T15:24:40.267Z,101658.13
2022-10-18T15:26:45.444Z,101664.63
2022-10-18T15:28:52.339Z,101659.69
2022-10-18T15:30:57.578Z,101669.34
2022-10-18T15:33:04.618Z,101660.66
2022-10-18T15:35:13.376Z,101659.19
2022-10-18T15:37:24.747Z,101665.59
2022-10-18T15:39:32.095Z,101663.75
2022-10-18T15:41:40.195Z,101671.75
2022-10-18T15:43:43.761Z,101674.38
2022-10-18T15:47:59.508Z,101672.88
2022-10-18T15:50:02.671Z,101683.44
2022-10-18T15:52:39.346Z,101684.81
2022-10-18T15:56:54.811Z,101685.38
2022-10-18T15:58:58.826Z,101688.44
2022-10-18T16:01:04.333Z,101685.16
2022-10-18T16:03:09.223Z,101684.19
2022-10-18T16:05:16.733Z,101689.97
2022-10-18T16:07:19.625Z,101692.03
2022-10-18T16:09:24.146Z,101686.06
2022-10-18T16:11:29.828Z,101695.34
2022-10-18T16:13:32.766Z,101704.19
2022-10-18T16:15:35.671Z,101708.28
2022-10-18T16:17:38.566Z,101711.56
2022-10-18T16:19:41.495Z,101708.56
2022-10-18T16:21:44.466Z,101714.56
2022-10-18T16:23:48.200Z,101714.81
2022-10-18T16:25:51.863Z,101711.94
2022-10-18T16:27:56.383Z,101716.09
2022-10-18T16:29:59.288Z,101717.13
2022-10-18T16:32:02.888Z,101719.66
2022-10-18T16:34:10.763Z,101718.69
2022-10-18T16:36:16.190Z,101721.31
2022-10-18T16:38:27.921Z,101731.66
2022-10-18T16:40:34.589Z,101733.38
2022-10-18T16:42:42.488Z,101742.66
2022-10-18T16:44:47.781Z,101739.41
2022-10-18T16:46:53.828Z,101743.47
2022-10-18T16:48:58.603Z,101745.75
2022-10-18T16:51:01.593Z,101744.78
2022-10-18T16:53:04.736Z,101758.41
2022-10-18T16:55:14.881Z,101756.63
2022-10-18T16:57:17.990Z,101760.06
2022-10-18T16:59:29.292Z,101759.69
2022-10-18T17:01:33.620Z,101770.75
2022-10-18T17:03:36.639Z,101773.75
2022-10-18T17:05:39.606Z,101780.84
2022-10-18T17:07:43.454Z,101777.84
2022-10-18T17:09:46.403Z,101783.56
2022-10-18T17:11:49.494Z,101795.44
2022-10-18T17:13:52.710Z,101803.50
2022-10-18T17:15:56.966Z,101800.41
2022-10-18T17:18:01.270Z,101805.06
2022-10-18T17:20:06.532Z,101807.94
2022-10-18T17:22:09.590Z,101802.84
2022-10-18T17:24:12.601Z,101811.16
2022-10-18T17:26:28.222Z,101816.72
2022-10-18T17:28:31.712Z,101815.56
2022-10-18T17:30:34.837Z,101819.56
2022-10-18T17:32:37.832Z,101817.06
2022-10-18T17:34:42.546Z,101822.44
2022-10-18T17:36:46.052Z,101822.44
2022-10-18T17:38:51.447Z,101832.22
2022-10-18T17:40:54.585Z,101828.78
2022-10-18T17:42:57.659Z,101835.25
2022-10-18T17:45:00.544Z,101841.63
2022-10-18T17:47:03.980Z,101848.66
2022-10-18T17:49:06.934Z,101847.09
2022-10-18T17:51:12.493Z,101849.09
2022-10-18T17:53:16.647Z,101850.28
2022-10-18T17:55:19.545Z,101854.94
2022-10-18T17:57:22.633Z,101856.06
2022-10-18T17:59:25.556Z,101864.28
2022-10-18T18:01:28.836Z,101862.59
2022-10-18T18:03:31.910Z,101873.19
2022-10-18T18:05:35.448Z,101870.66
2022-10-18T18:07:39.678Z,101860.84
2022-10-18T18:09:42.579Z,101863.53
2022-10-18T18:11:47.337Z,101866.41
2022-10-18T18:13:50.283Z,101871.13
2022-10-18T18:15:53.221Z,101867.44
2022-10-18T18:17:57.485Z,101865.78
2022-10-18T18:20:00.939Z,101865.31
2022-10-18T18:22:04.810Z,101868.16
2022-10-18T18:24:10.432Z,101864.56
2022-10-18T18:26:13.530Z,101870.19
2022-10-18T18:28:16.601Z,101862.41
2022-10-18T18:30:22.076Z,101877.44
2022-10-18T18:32:25.110Z,101882.63
2022-10-18T18:34:28.031Z,101878.19
2022-10-18T18:36:33.179Z,101873.94
2022-10-18T18:38:39.631Z,101873.88
2022-10-18T18:40:43.909Z,101879.97
2022-10-18T18:43:01.630Z,101883.59
2022-10-18T18:45:10.099Z,101890.72
2022-10-18T18:47:13.516Z,101886.34
2022-10-18T18:49:16.860Z,101883.81
2022-10-18T18:51:21.665Z,101890.09
2022-10-18T18:53:28.540Z,101886.78
2022-10-18T18:55:32.864Z,101893.13
2022-10-18T18:57:37.151Z,101895.06
2022-10-18T18:59:40.448Z,101900.44
2022-10-18T19:01:43.511Z,101903.22
2022-10-18T19:03:48.351Z,101902.38
2022-10-18T19:05:51.547Z,101904.28
2022-10-18T19:07:54.775Z,101905.25
2022-10-18T19:09:57.703Z,101909.75
2022-10-18T19:12:00.601Z,101901.13
2022-10-18T19:14:05.589Z,101904.63
2022-10-18T19:16:18.457Z,101901.16
2022-10-18T19:18:23.880Z,101909.16
2022-10-18T19:20:27.040Z,101910.03
2022-10-18T19:22:30.010Z,101902.06
2022-10-18T19:24:33.880Z,101897.66
2022-10-18T19:26:39.297Z,101892.47
2022-10-18T19:28:42.187Z,101904.88
2022-10-18T19:30:50.216Z,101908.50
2022-10-18T19:33:01.143Z,101905.00
2022-10-18T19:35:06.886Z,101906.84
2022-10-18T19:37:10.457Z,101907.78
2022-10-18T19:39:18.221Z,101906.22
2022-10-18T19:41:21.568Z,101911.53
2022-10-18T19:43:24.685Z,101909.00
2022-10-18T19:45:29.744Z,101916.19
2022-10-18T19:47:38.274Z,101913.66
2022-10-18T19:49:42.582Z,101920.84
2022-10-18T19:51:45.996Z,101916.53
2022-10-18T19:53:49.248Z,101919.09
2022-10-18T19:55:58.821Z,101912.13
2022-10-18T19:58:01.779Z,101923.72
2022-10-18T20:00:08.214Z,101922.91
2022-10-18T20:02:15.385Z,101934.34
2022-10-18T20:04:22.995Z,101936.16
2022-10-18T20:06:26.161Z,101937.13
2022-10-18T20:08:30.702Z,101943.31
2022-10-18T20:10:33.984Z,101938.94
2022-10-18T20:12:37.088Z,101928.59
2022-10-18T20:14:41.646Z,101936.53
2022-10-18T20:16:45.125Z,101931.22
2022-10-18T20:18:49.178Z,101938.28
2022-10-18T20:20:53.615Z,101929.47
2022-10-18T20:22:58.862Z,101941.84
2022-10-18T20:25:01.897Z,101934.81
2022-10-18T20:27:05.369Z,101937.50
2022-10-18T20:29:08.294Z,101939.50
2022-10-18T20:31:13.917Z,101935.97
2022-10-18T20:33:16.877Z,101940.44
2022-10-18T20:35:20.034Z,101939.66
2022-10-18T20:37:24.302Z,101935.31
2022-10-18T20:39:27.753Z,101932.72
2022-10-18T20:41:31.982Z,101931.84
2022-10-18T20:43:35.395Z,101933.63
2022-10-18T20:45:38.266Z,101931.03
2022-10-18T20:47:44.210Z,101933.75
2022-10-18T20:49:47.413Z,101931.19
2022-10-18T20:51:50.743Z,101929.44
2022-10-18T20:53:55.246Z,101932.16
2022-10-18T20:56:03.708Z,101930.44
2022-10-18T20:58:07.742Z,101931.41
2022-10-18T21:00:15.808Z,101944.63
2022-10-18T21:02:18.685Z,101943.78
2022-10-18T21:04:21.604Z,101954.34
2022-10-18T21:06:25.849Z,101954.41
2022-10-18T21:08:29.042Z,101948.25
2022-10-18T21:10:33.584Z,101948.28
2022-10-18T21:12:37.477Z,101947.47
2022-10-18T21:14:40.667Z,101943.13
2022-10-18T21:16:43.941Z,101944.09
2022-10-18T21:18:46.877Z,101944.94
2022-10-18T21:20:50.027Z,101944.13
2022-10-18T21:22:53.978Z,101937.13
2022-10-18T21:24:56.885Z,101941.53
2022-10-18T21:27:01.183Z,101947.72
2022-10-18T21:29:05.500Z,101946.00
2022-10-18T21:31:13.741Z,101943.31
2022-10-18T21:33:16.832Z,101938.09
2022-10-18T21:35:20.137Z,101934.59
2022-10-18T21:37:23.067Z,101939.03
2022-10-18T21:39:26.488Z,101932.91
2022-10-18T21:41:29.740Z,101930.31
2022-10-18T21:43:33.974Z,101929.47
2022-10-18T21:45:36.898Z,101927.84
2022-10-18T21:47:40.190Z,101933.13
2022-10-18T21:49:43.080Z,101925.22
2022-10-18T21:51:46.176Z,101927.03
2022-10-18T21:53:51.587Z,101929.69
2022-10-18T21:55:54.504Z,101927.94
2022-10-18T21:57:57.425Z,101931.44
2022-10-18T22:00:03.489Z,101927.03
2022-10-18T22:02:06.359Z,101927.06
2022-10-18T22:04:19.366Z,101916.47
2022-10-18T22:06:23.633Z,101916.59
2022-10-18T22:08:26.566Z,101912.38
2022-10-18T22:10:30.163Z,101910.63
2022-10-18T22:12:33.066Z,101907.16
2022-10-18T22:14:36.297Z,101910.66
2022-10-18T22:16:40.575Z,101898.34
2022-10-18T22:18:44.381Z,101908.91
2022-10-18T22:20:54.862Z,101910.66
2022-10-18T22:22:57.883Z,101900.19
2022-10-18T22:25:00.775Z,101901.09
2022-10-18T22:27:03.733Z,101908.13
2022-10-18T22:29:08.833Z,101896.69
2022-10-18T22:31:15.421Z,101904.66
2022-10-18T22:33:19.712Z,101902.91
2022-10-18T22:35:22.650Z,101900.25
2022-10-18T22:37:25.533Z,101901.16
2022-10-18T22:39:28.457Z,101894.16
2022-10-18T22:41:31.379Z,101895.09
2022-10-18T22:43:34.485Z,101902.19
2022-10-18T22:45:37.766Z,101908.28
2022-10-18T22:47:40.702Z,101903.06
2022-10-18T22:49:44.988Z,101905.81
2022-10-18T22:51:47.920Z,101898.72
2022-10-18T22:53:51.051Z,101898.72
2022-10-18T22:55:54.257Z,101905.84
2022-10-18T22:57:57.407Z,101904.13
2022-10-18T23:00:00.659Z,101906.78
2022-10-18T23:02:03.569Z,101900.69
2022-10-18T23:04:06.770Z,101902.47
2022-10-18T23:06:20.625Z,101905.97
2022-10-18T23:08:23.843Z,101907.69
2022-10-18T23:10:26.845Z,101906.84
2022-10-18T23:12:30.333Z,101913.00
2022-10-18T23:14:33.404Z,101911.31
2022-10-18T23:16:36.702Z,101909.59
2022-10-18T23:20:47.663Z,101914.88
2022-10-18T23:22:52.047Z,101914.97
2022-10-18T23:24:55.187Z,101909.66
2022-10-18T23:26:58.057Z,101911.44
2022-10-18T23:29:01.057Z,101905.34
2022-10-18T23:31:08.986Z,101910.59
2022-10-18T23:33:11.940Z,101917.59
2022-10-18T23:35:15.205Z,101921.09
2022-10-18T23:37:18.205Z,101908.84
2022-10-18T23:39:22.819Z,101912.41
2022-10-18T23:41:25.985Z,101908.06
2022-10-18T23:43:28.961Z,101906.34
2022-10-18T23:45:31.885Z,101905.47
2022-10-18T23:47:35.166Z,101907.22
2022-10-18T23:49:38.269Z,101906.38
2022-10-18T23:51:41.108Z,101917.00
2022-10-18T23:53:44.215Z,101914.38
2022-10-18T23:55:54.328Z,101927.47
2022-10-18T23:57:57.448Z,101912.63
